Data for 08/21/2014

Time Sea-Level Adjusted Pressure Absolute Pressure Temperature Relative Humidity Dew Point   
(mb) (inHg) (mb) (inHg) (C) (F) (%) (C) (F)
00:05 1018 30.06 847 25.01 14.1 57.4 71 9 48.2
00:10 1018 30.06 847 25.01 14.1 57.4 70 8.9 48
00:15 1018 30.06 847 25.01 14 57.2 72 9 48.3
00:20 1018 30.06 847 25.01 13.9 57.1 73 9.2 48.6
00:25 1018 30.06 847 25.01 13.7 56.7 74 9.2 48.5
00:30 1018 30.06 847 25.01 13.6 56.5 74 9.1 48.4
00:35 1018 30.06 847 25.01 13.6 56.4 73 8.9 48
00:40 1018 30.06 847 25.01 13.6 56.4 72 8.7 47.7
00:45 1018 30.06 847 25.01 13.6 56.5 72 8.8 47.8
00:50 1018 30.06 847 25.01 13.6 56.5 71 8.6 47.4
00:55 1018 30.06 847 25.01 13.6 56.4 74 9 48.2
01:00 1018 30.06 847 25.01 13.5 56.3 74 8.9 48
01:05 1018 30.06 847 25.01 13.3 55.9 74 8.8 47.8
01:10 1018 30.06 847 25.01 13.2 55.8 74 8.7 47.7
01:15 1018 30.06 847 25.01 13.3 55.9 75 8.9 48.1
01:20 1018 30.06 847 25.01 13.2 55.8 76 9.1 48.4
01:25 1018 30.06 847 25.01 13.2 55.8 77 9.2 48.6
01:30 1018 30.06 847 25.01 13.2 55.7 77 9.3 48.7
01:35 1018 30.06 847 25.01 13.1 55.6 78 9.3 48.8
01:40 1018 30.06 847 25.01 13.2 55.7 77 9.3 48.7
01:45 1018 30.06 847 25.01 13.2 55.7 78 9.4 48.9
01:50 1018 30.06 848 25.04 13.2 55.8 77 9.3 48.8
01:55 1018 30.06 848 25.04 13.4 56 77 9.5 49.1
02:00 1018 30.06 848 25.04 13.3 56 77 9.3 48.8
02:05 1018 30.06 848 25.04 13.3 55.9 77 9.4 48.9
02:10 1018 30.06 848 25.04 13.3 55.9 77 9.4 48.9
02:15 1018 30.06 848 25.04 13.3 56 77 9.4 49
02:20 1018 30.06 848 25.04 13.3 55.9 77 9.4 48.9
02:25 1019 30.09 848 25.04 13.3 55.9 77 9.4 48.9
02:30 1019 30.09 848 25.04 13.2 55.8 77 9.4 48.9
02:35 1019 30.09 848 25.04 13.3 55.9 75 9 48.2
02:40 1019 30.09 848 25.04 13.4 56 75 9.1 48.4
02:45 1019 30.09 848 25.04 13.4 56 75 9.1 48.4
02:50 1019 30.09 848 25.04 13.3 55.9 75 8.9 48.1
02:55 1019 30.09 848 25.04 13.1 55.5 76 9 48.1
03:00 1019 30.09 848 25.04 13.1 55.5 76 9 48.1
03:05 1019 30.09 848 25.04 13.1 55.5 76 8.9 48
03:10 1019 30.09 848 25.04 13.1 55.5 76 8.9 48
03:15 1019 30.09 848 25.04 13 55.5 77 9.1 48.4
03:20 1019 30.09 848 25.04 13 55.5 76 9 48.2
03:25 1019 30.09 848 25.04 13.1 55.6 76 9 48.3
03:30 1019 30.09 848 25.04 13.1 55.6 76 9 48.2
03:35 1019 30.09 848 25.04 13.2 55.7 76 9 48.2
03:40 1019 30.09 848 25.04 13.2 55.8 75 9 48.1
03:45 1019 30.09 848 25.04 13.3 56 74 8.9 48.1
03:50 1019 30.09 848 25.04 13.4 56 75 9 48.1
03:55 1019 30.09 848 25.04 13.4 56.1 76 9.2 48.6
04:00 1019 30.09 848 25.04 13.3 56 78 9.6 49.2
04:05 1019 30.09 848 25.04 13.1 55.5 80 9.7 49.4
04:10 1019 30.09 848 25.04 12.9 55.2 82 9.8 49.7
04:15 1019 30.09 848 25.04 12.8 55 83 9.9 49.8
04:20 1019 30.09 848 25.04 12.5 54.5 83 9.8 49.7
04:25 1019 30.09 848 25.04 12.4 54.4 84 9.8 49.6
04:30 1019 30.09 848 25.04 12.4 54.3 84 9.8 49.6
04:35 1019 30.09 848 25.04 12.4 54.2 84 9.8 49.6
04:40 1019 30.09 848 25.04 12.3 54.2 85 9.9 49.9
04:45 1019 30.09 848 25.04 12.2 54 87 10.1 50.1
04:50 1019 30.09 848 25.04 12.1 53.8 87 10 50
04:55 1019 30.09 848 25.04 12.1 53.8 87 10 50
05:00 1019 30.09 848 25.04 12.1 53.7 88 10.1 50.3
05:05 1019 30.09 848 25.04 12.1 53.8 88 10.2 50.3
05:10 1019 30.09 848 25.04 12 53.6 88 10 50
05:15 1019 30.09 848 25.04 12 53.6 87 9.8 49.7
05:20 1019 30.09 848 25.04 12 53.6 86 9.8 49.6
05:25 1019 30.09 848 25.04 12.1 53.7 86 9.8 49.6
05:30 1019 30.09 848 25.04 12.1 53.8 85 9.7 49.4
05:35 1019 30.09 848 25.04 12.2 53.9 84 9.6 49.4
05:40 1019 30.09 848 25.04 12.2 53.9 84 9.6 49.2
05:45 1019 30.09 848 25.04 12.2 54 83 9.4 49
05:50 1019 30.09 848 25.04 12.3 54.1 82 9.4 48.8
05:55 1019 30.09 848 25.04 12.3 54.2 83 9.5 49.2
06:00 1019 30.09 848 25.04 12.3 54.2 83 9.5 49
06:05 1019 30.09 848 25.04 12.3 54.1 84 9.7 49.5
06:10 1019 30.09 848 25.04 12.3 54.1 83 9.5 49.2
06:15 1019 30.09 848 25.04 12.3 54.1 84 9.6 49.3
06:20 1019 30.09 848 25.04 12.3 54.1 83 9.5 49.1
06:25 1019 30.09 848 25.04 12.3 54.2 83 9.5 49.1
06:30 1019 30.09 848 25.04 12.4 54.2 83 9.5 49.1
06:35 1019 30.09 848 25.04 12.5 54.4 82 9.5 49.1
06:40 1019 30.09 848 25.04 12.5 54.5 82 9.5 49.2
06:45 1019 30.09 849 25.07 12.5 54.5 82 9.6 49.3
06:50 1019 30.09 849 25.07 12.5 54.6 81 9.5 49.1
06:55 1019 30.09 849 25.07 12.6 54.8 82 9.6 49.3
07:00 1019 30.09 849 25.07 12.8 55 80 9.4 49
07:05 1019 30.09 849 25.07 12.9 55.2 81 9.7 49.4
07:10 1019 30.09 849 25.07 13 55.4 79 9.6 49.2
07:15 1020 30.12 849 25.07 13.1 55.7 79 9.6 49.3
07:20 1020 30.12 849 25.07 13.3 55.9 78 9.6 49.3
07:25 1020 30.12 849 25.07 13.4 56.1 78 9.7 49.5
07:30 1020 30.12 849 25.07 13.5 56.2 77 9.6 49.2
07:35 1020 30.12 849 25.07 13.6 56.5 79 10 50
07:40 1020 30.12 849 25.07 13.8 56.8 81 10.6 51
07:45 1020 30.12 849 25.07 13.8 56.8 81 10.6 51
07:50 1020 30.12 849 25.07 14 57.2 80 10.6 51.1
07:55 1020 30.12 849 25.07 14.2 57.6 79 10.7 51.3
08:00 1020 30.12 849 25.07 14.3 57.7 79 10.7 51.3
08:05 1020 30.12 849 25.07 14.3 57.7 78 10.6 51
08:10 1020 30.12 849 25.07 14.4 57.9 77 10.5 50.9
08:15 1020 30.12 849 25.07 14.6 58.2 76 10.3 50.6
08:20 1020 30.12 849 25.07 14.6 58.4 74 10.1 50.2
08:25 1020 30.12 849 25.07 14.5 58.1 76 10.4 50.8
08:30 1020 30.12 849 25.07 14.4 58 77 10.4 50.8
08:35 1020 30.12 849 25.07 14.3 57.7 78 10.5 50.9
08:40 1020 30.12 849 25.07 14.3 57.8 79 10.7 51.3
08:45 1020 30.12 849 25.07 14.5 58 76 10.4 50.6
08:50 1020 30.12 849 25.07 14.6 58.2 75 10.2 50.4
08:55 1020 30.12 849 25.07 14.6 58.4 74 10.1 50.2
09:00 1020 30.12 849 25.07 14.6 58.2 74 10.1 50.1
09:05 1020 30.12 849 25.07 14.6 58.2 73 9.9 49.8
09:10 1020 30.12 849 25.07 14.6 58.3 74 10 50
09:15 1020 30.12 849 25.07 14.6 58.2 74 10.1 50.2
09:20 1020 30.12 849 25.07 14.6 58.3 73 9.8 49.6
09:25 1020 30.12 849 25.07 14.8 58.6 73 10 50
09:30 1020 30.12 849 25.07 14.7 58.4 74 10.2 50.3
09:35 1020 30.12 849 25.07 14.4 58 75 10.2 50.3
09:40 1020 30.12 849 25.07 14.2 57.6 76 10.1 50.2
09:45 1020 30.12 849 25.07 14.2 57.5 76 10 50.1
09:50 1020 30.12 849 25.07 14.1 57.4 77 10.1 50.2
09:55 1020 30.12 849 25.07 13.9 57 78 10.1 50.2
10:00 1020 30.12 849 25.07 13.6 56.5 79 10 50.1
10:05 1020 30.12 849 25.07 13.5 56.4 82 10.5 51
10:10 1020 30.12 850 25.1 13.4 56.1 85 10.9 51.6
10:15 1020 30.12 850 25.1 13.1 55.6 84 10.5 50.9
10:20 1020 30.12 850 25.1 12.8 55 86 10.5 51
10:25 1021 30.15 850 25.1 12.6 54.7 88 10.6 51.1
10:30 1021 30.15 850 25.1 12.5 54.4 88 10.6 51
10:35 1021 30.15 850 25.1 12.3 54.2 89 10.6 51.1
10:40 1021 30.15 850 25.1 12.3 54.2 90 10.7 51.3
10:45 1021 30.15 850 25.1 12.4 54.4 89 10.7 51.3
10:50 1021 30.15 850 25.1 12.5 54.4 89 10.8 51.4
10:55 1021 30.15 850 25.1 12.5 54.6 88 10.6 51.1
11:00 1021 30.15 850 25.1 12.6 54.7 88 10.7 51.2
11:05 1021 30.15 850 25.1 12.6 54.7 87 10.6 51
11:10 1021 30.15 850 25.1 12.8 55 87 10.6 51.1
11:15 1021 30.15 850 25.1 12.9 55.1 87 10.8 51.5
11:20 1021 30.15 850 25.1 13 55.5 85 10.7 51.2
11:25 1021 30.15 850 25.1 13.2 55.8 84 10.6 51.1
11:30 1021 30.15 850 25.1 13.4 56 85 11 51.7
11:35 1021 30.15 850 25.1 13.2 55.7 86 10.9 51.6
11:40 1021 30.15 850 25.1 12.9 55.1 85 10.4 50.7
11:45 1021 30.15 850 25.1 12.7 54.9 87 10.6 51
11:50 1021 30.15 850 25.1 12.8 55 86 10.5 50.9
11:55 1021 30.15 850 25.1 12.9 55.2 86 10.6 51
12:00 1021 30.15 850 25.1 13.1 55.5 86 10.9 51.6
12:05 1021 30.15 850 25.1 13.1 55.5 86 10.7 51.3
12:10 1021 30.15 850 25.1 12.8 55.1 85 10.4 50.7
12:15 1021 30.15 850 25.1 12.8 55 88 10.9 51.7
12:20 1021 30.15 850 25.1 13.2 55.7 82 10.1 50.3
12:25 1021 30.15 850 25.1 12.8 55.1 85 10.4 50.8
12:30 1021 30.15 850 25.1 12.7 54.8 86 10.4 50.7
12:35 1021 30.15 850 25.1 13 55.3 85 10.5 50.9
12:40 1021 30.15 850 25.1 13.6 56.5 83 10.7 51.3
12:45 1021 30.15 850 25.1 13.6 56.5 83 10.9 51.5
12:50 1021 30.15 850 25.1 14.5 58.1 76 10.3 50.5
12:55 1021 30.15 850 25.1 14.8 58.6 76 10.7 51.2
13:00 1021 30.15 850 25.1 14.7 58.5 81 11.5 52.6
13:05 1021 30.15 850 25.1 15 59 77 11 51.7
13:10 1021 30.15 850 25.1 15.9 60.6 73 11.2 52.1
13:15 1021 30.15 850 25.1 17.2 62.9 66 10.8 51.5
13:20 1021 30.15 850 25.1 17 62.7 64 10.2 50.4
13:25 1021 30.15 850 25.1 16.5 61.7 62 9.3 48.7
13:30 1021 30.15 850 25.1 16.4 61.6 64 9.7 49.4
13:35 1021 30.15 850 25.1 16.3 61.4 64 9.5 49.1
13:40 1021 30.15 850 25.1 16.4 61.6 61 9 48.1
13:45 1021 30.15 850 25.1 16.5 61.7 62 9.3 48.7
13:50 1021 30.15 850 25.1 16.7 62.1 60 9.1 48.3
13:55 1021 30.15 850 25.1 16.6 61.9 63 9.7 49.4
14:00 1021 30.15 850 25.1 16.3 61.4 62 9.1 48.5
14:05 1021 30.15 850 25.1 16.2 61.1 61 8.7 47.7
14:10 1021 30.15 850 25.1 16.8 62.3 60 9.1 48.3
14:15 1020 30.12 850 25.1 16.5 61.8 60 8.9 48
14:20 1020 30.12 850 25.1 17 62.6 57 8.6 47.5
14:25 1020 30.12 850 25.1 17.5 63.6 56 8.7 47.6
14:30 1020 30.12 850 25.1 18.2 64.8 54 8.9 48
14:35 1020 30.12 849 25.07 18.2 64.8 56 9.3 48.7
14:40 1020 30.12 849 25.07 17.2 62.9 56 8.3 47
14:45 1020 30.12 849 25.07 17.9 64.2 51 7.6 45.7
14:50 1020 30.12 849 25.07 17.9 64.2 54 8.7 47.6
14:55 1020 30.12 849 25.07 17.5 63.5 55 8.5 47.2
15:00 1020 30.12 849 25.07 17.8 64.1 54 8.4 47.1
15:05 1020 30.12 849 25.07 18.4 65.1 51 8.3 46.9
15:10 1020 30.12 849 25.07 18.2 64.7 51 8 46.4
15:15 1020 30.12 849 25.07 18.5 65.2 50 8 46.4
15:20 1020 30.12 849 25.07 19.3 66.8 46 7.7 45.8
15:25 1020 30.12 849 25.07 20 67.9 47 8.4 47.1
15:30 1020 30.12 849 25.07 20 68 45 7.9 46.3
15:35 1020 30.12 849 25.07 20.7 69.2 44 8 46.4
15:40 1020 30.12 849 25.07 20.5 68.9 41 6.9 44.4
15:45 1020 30.12 849 25.07 20.2 68.4 44 7.6 45.7
15:50 1020 30.12 849 25.07 19.5 67.2 43 6.9 44.4
15:55 1020 30.12 849 25.07 19.6 67.4 42 6.6 43.9
16:00 1020 30.12 849 25.07 19.9 67.8 42 6.6 43.9
16:05 1020 30.12 849 25.07 20.1 68.2 40 6.1 42.9
16:10 1020 30.12 849 25.07 20.5 69 41 6.9 44.5
16:15 1020 30.12 849 25.07 20.5 68.8 40 6.5 43.7
16:20 1020 30.12 849 25.07 20.4 68.7 37 5.3 41.5
16:25 1020 30.12 849 25.07 20.7 69.2 37 5.8 42.4
16:30 1020 30.12 849 25.07 20.9 69.7 38 6.2 43.1
16:35 1020 30.12 849 25.07 21 69.8 37 6.1 43
16:40 1020 30.12 849 25.07 20.6 69 39 6.2 43.1
16:45 1020 30.12 849 25.07 20 67.9 40 6.1 42.9
16:50 1020 30.12 849 25.07 20.2 68.4 39 5.9 42.5
16:55 1020 30.12 849 25.07 21 69.8 38 6.4 43.4
17:00 1020 30.12 849 25.07 20 68 46 8.2 46.8
17:05 1020 30.12 849 25.07 18.7 65.7 50 8.2 46.8
17:10 1020 30.12 849 25.07 18 64.5 53 8.4 47.1
17:15 1020 30.12 849 25.07 17.7 63.8 55 8.6 47.4
17:20 1019 30.09 849 25.07 17.5 63.4 56 8.6 47.5
17:25 1020 30.12 849 25.07 17.2 63 57 8.6 47.5
17:30 1020 30.12 849 25.07 17.1 62.8 56 8.4 47.1
17:35 1019 30.09 849 25.07 17.1 62.7 58 8.7 47.7
17:40 1019 30.09 849 25.07 16.9 62.4 60 9 48.3
17:45 1019 30.09 849 25.07 16.8 62.3 61 9.3 48.7
17:50 1019 30.09 849 25.07 16.8 62.2 61 9.3 48.7
17:55 1019 30.09 849 25.07 16.6 61.8 60 8.9 47.9
18:00 1020 30.12 849 25.07 16.5 61.7 61 8.9 48.1
18:05 1020 30.12 849 25.07 16.4 61.5 62 9.1 48.4
18:10 1020 30.12 849 25.07 16.3 61.4 62 9.2 48.5
18:15 1020 30.12 849 25.07 16.2 61.1 63 9.1 48.5
18:20 1020 30.12 849 25.07 16.1 61 63 9.1 48.4
18:25 1020 30.12 849 25.07 16.1 60.9 64 9.3 48.8
18:30 1020 30.12 849 25.07 16 60.7 65 9.5 49.1
18:35 1020 30.12 849 25.07 15.8 60.5 67 9.7 49.4
18:40 1020 30.12 849 25.07 15.7 60.3 67 9.8 49.6
18:45 1020 30.12 849 25.07 15.6 60 69 10 50
18:50 1020 30.12 849 25.07 15.3 59.6 70 10 49.9
18:55 1020 30.12 849 25.07 15.2 59.3 69 9.6 49.3
19:00 1020 30.12 849 25.07 15 58.9 69 9.3 48.8
19:05 1020 30.12 849 25.07 14.9 58.7 68 9.1 48.4
19:10 1020 30.12 850 25.1 14.8 58.6 68 8.9 48
19:15 1020 30.12 850 25.1 14.6 58.3 67 8.6 47.5
19:20 1020 30.12 850 25.1 14.5 58.1 67 8.6 47.4
19:25 1021 30.15 850 25.1 14.4 57.8 69 8.9 48
19:30 1021 30.15 850 25.1 14.1 57.4 71 9 48.1
19:35 1021 30.15 850 25.1 13.8 56.9 74 9.3 48.8
19:40 1021 30.15 850 25.1 13.7 56.6 74 9.2 48.5
19:45 1021 30.15 850 25.1 13.6 56.4 76 9.3 48.8
19:50 1021 30.15 850 25.1 13.4 56.2 77 9.5 49.2
19:55 1021 30.15 850 25.1 13.4 56.1 76 9.3 48.8
20:00 1021 30.15 850 25.1 13.5 56.3 76 9.5 49
20:05 1021 30.15 850 25.1 13.5 56.3 77 9.5 49.1
20:10 1021 30.15 850 25.1 13.6 56.4 75 9.3 48.8
20:15 1021 30.15 851 25.13 13.6 56.5 77 9.7 49.5
20:20 1021 30.15 851 25.13 13.6 56.5 76 9.6 49.2
20:25 1022 30.18 851 25.13 13.6 56.4 78 9.8 49.7
20:30 1022 30.18 851 25.13 13.5 56.2 78 9.8 49.6
20:35 1022 30.18 851 25.13 13.3 56 80 9.9 49.8
20:40 1022 30.18 851 25.13 13.1 55.5 83 10.2 50.3
20:45 1022 30.18 851 25.13 13 55.3 84 10.3 50.6
20:50 1022 30.18 851 25.13 12.9 55.2 84 10.3 50.5
20:55 1022 30.18 851 25.13 12.7 54.9 82 9.7 49.5
21:00 1022 30.18 851 25.13 12.5 54.5 86 10.2 50.4
21:05 1022 30.18 851 25.13 12.3 54.1 89 10.5 50.9
21:10 1022 30.18 851 25.13 12.2 54 86 9.9 49.9
21:15 1022 30.18 851 25.13 12.3 54.1 86 10.1 50.1
21:20 1022 30.18 851 25.13 12.1 53.9 87 10 50.1
21:25 1022 30.18 851 25.13 12 53.5 89 10.2 50.3
21:30 1022 30.18 851 25.13 11.8 53.2 90 10.2 50.3
21:35 1022 30.18 851 25.13 11.8 53.2 90 10.1 50.2
21:40 1022 30.18 851 25.13 11.7 53.1 90 10.1 50.2
21:45 1022 30.18 851 25.13 11.7 53.1 90 10.1 50.1
21:50 1022 30.18 851 25.13 11.7 53.1 91 10.3 50.5
21:55 1021 30.15 851 25.13 11.7 53 91 10.2 50.3
22:00 1021 30.15 850 25.1 11.6 52.8 91 10.1 50.2
22:05 1021 30.15 850 25.1 11.5 52.7 91 10 50.1
22:10 1021 30.15 850 25.1 11.5 52.7 90 10 49.9
22:15 1021 30.15 850 25.1 11.6 52.8 90 10 49.9
22:20 1021 30.15 850 25.1 11.6 52.9 90 10 50
22:25 1021 30.15 850 25.1 11.6 52.9 89 9.9 49.8
22:30 1021 30.15 850 25.1 11.6 53 89 9.9 49.8
22:35 1021 30.15 850 25.1 11.7 53 89 9.9 49.8
22:40 1021 30.15 850 25.1 11.6 52.9 88 9.7 49.5
22:45 1021 30.15 850 25.1 11.6 52.9 88 9.6 49.3
22:50 1021 30.15 850 25.1 11.6 52.9 87 9.5 49
22:55 1021 30.15 850 25.1 11.7 53 86 9.4 49
23:00 1021 30.15 850 25.1 11.7 53 87 9.6 49.3
23:05 1021 30.15 850 25.1 11.7 53 87 9.5 49.1
23:10 1021 30.15 850 25.1 11.6 52.9 87 9.5 49.1
23:15 1021 30.15 850 25.1 11.7 53 86 9.5 49.1
23:20 1021 30.15 850 25.1 11.8 53.3 86 9.5 49.1
23:25 1021 30.15 850 25.1 12 53.6 84 9.5 49.1
23:30 1021 30.15 850 25.1 12.1 53.8 84 9.4 49
23:35 1021 30.15 850 25.1 12.1 53.8 83 9.3 48.7
23:40 1021 30.15 850 25.1 12.1 53.7 84 9.4 48.9
23:45 1020 30.12 850 25.1 12 53.7 83 9.3 48.8
23:50 1020 30.12 850 25.1 12 53.6 84 9.4 48.9
23:55 1021 30.15 850 25.1 12.1 53.8 84 9.5 49
24:00 1021 30.15 850 25.1 12.1 53.9 84 9.5 49.1